Minerva, Texas
Current Conditions -  °F | °C
As of 11:55 PM on Tuesday 21 Oct 2014 (Local Time) from KT35 Reporting Station
Clear Clear  
Wind Chill: 65°   Ceiling: Unl
Heat Index: 65°   Visibility: 10mi
Dew Point: 59°   Wind: 3mph
Humidity: 82%   Direction: 120°ESE
Pressure: 30.06"   Gusts: NA
Location:  30.6499°N, 96.9973°W
Report Text: KT35 220455Z AUTO 12003KT 10SM CLR 18/15 A3006 RMK AO2 T01830151
Loading
Personal Weather Stations






























Interactive Weather Map
Tropical Storm Tracking
New forecast layout! Learn more

10-Day Weather Forecast

Advertisements
Track Severe Weather on mobile